Pagina principale
METAR-TAF:

METAR-TAF

Aeroporti :

Wiener Neustadt, Austria

latitudine: 47-50-36N, longitudine: 016-15-29E, altezza: 272 m

Osservazione

Il bollettino è stato emesso 20 minuti fa, alle 12:00 UTC
Vento 5 kt da nord/nord-ovest
Temperature
Pressione
rovesci di pioggia

METAR: LOAN 191200Z 34005KT 10KM -SHRA FEW012CU SCT018SC BKN030SC

Ora: 13:20 (12:20 UTC)

Previsione

Il bollettino è stato emesso 55 minuti fa, alle 11:25 UTC
Previsione valida dal 19 alle 12 UTC al 19 alle 21 UTC
Vento 15 kt da ovest con raffiche fino a 25 kt
Visibilità 10 km o più
Nubi sparse ad un'altezza di 3000 ft
Nubi sparse ad un'altezza di 5000 ft
Temporaneamente
dal 19 alle 12 UTC al 19 alle 21 UTC
Vento 18 kt da ovest/nord-ovest con raffiche fino a 30 kt
Nuvoloso ad un'altezza di 2500 ft
Poco nuvoloso ad un'altezza di 3000 ft, Cumulo congesto.
rovesci di pioggia

TAF: LOAN 191125Z 1912/1921 28015G25KT 9999 SCT030 SCT050 TEMPO 1912/1921 29018G30KT -SHRA BKN025 FEW030TCU

Osservazioni e previsioni meteorologiche di più di 4000 aeroporti (messaggi METAR e TAF).

Le stazioni disponibili sono rappresentate dai dischi gialli e rossi sulla carta.

Puntare il mouse per vedere il nome della stazione.

Clicca sopra per visualizzare le osservazioni e previsioni meteorologiche.

Per cambiare la mappa : fare clic sui pulsanti verdi con una croce nera per ingrandire, il pulsante verde con un trattino per diminuire, o sulla freccia verde per le mappe adiacenti.


METAR-TAF: